Trevor, Wisconsin
Current Conditions -  °F | °C
As of 1:13 AM on Sunday 23 Nov 2014 (Local Time) from KENW Reporting Station
Broken Clouds Broken Clouds  
Wind Chill: 50°   Ceiling: 2900
Heat Index: 50°   Visibility: 7mi
Dew Point: 47°   Wind: 15mph
Humidity: 89%   Direction: 200°SSW
Pressure: 29.79"   Gusts: NA
Location:  42.51°N, 88.12°W
Report Text: KENW 230713Z AUTO 20013KT 7SM BKN029 BKN060 10/08 A2979 RMK AO2 T01000083
Loading
Personal Weather Stations






























Interactive Weather Map New forecast layout! Learn more

10-Day Weather Forecast

Advertisements
Track Severe Weather on mobile